createdAt,value
2018-04-12T00:00:45.190Z,100767.17
2018-04-12T00:03:11.228Z,100759.36
2018-04-12T00:05:36.911Z,100756.75
2018-04-12T00:08:02.580Z,100756.35
2018-04-12T00:10:28.248Z,100758.67
2018-04-12T00:12:53.951Z,100754.95
2018-04-12T00:15:19.630Z,100758.44
2018-04-12T00:17:45.351Z,100766.16
2018-04-12T00:20:11.015Z,100774.33
2018-04-12T00:22:36.701Z,100773.94
2018-04-12T00:25:02.371Z,100769.66
2018-04-12T00:27:28.067Z,100767.73
2018-04-12T00:29:53.722Z,100763.89
2018-04-12T00:32:19.390Z,100753.28
2018-04-12T00:34:45.063Z,100745.80
2018-04-12T00:37:10.723Z,100751.42
2018-04-12T00:39:36.393Z,100746.81
2018-04-12T00:42:02.054Z,100734.19
2018-04-12T00:44:27.930Z,100735.48
2018-04-12T00:46:53.643Z,100727.50
2018-04-12T00:49:19.336Z,100730.44
2018-04-12T00:51:45.002Z,100738.15
2018-04-12T00:54:10.712Z,100733.45
2018-04-12T00:56:36.366Z,100730.45
2018-04-12T00:59:02.146Z,100726.92
2018-04-12T01:01:27.825Z,100731.55
2018-04-12T01:03:53.494Z,100734.79
2018-04-12T01:06:19.192Z,100732.93
2018-04-12T01:08:44.878Z,100726.91
2018-04-12T01:11:10.538Z,100735.56
2018-04-12T01:13:36.241Z,100726.04
2018-04-12T01:16:01.915Z,100724.12
2018-04-12T01:18:27.583Z,100726.47
2018-04-12T01:20:53.269Z,100723.08
2018-04-12T01:23:19.013Z,100724.92
2018-04-12T01:25:44.725Z,100729.44
2018-04-12T01:28:10.383Z,100730.98
2018-04-12T01:30:36.065Z,100719.02
2018-04-12T01:33:07.808Z,100722.12
2018-04-12T01:35:33.508Z,100718.42
2018-04-12T01:37:59.162Z,100712.08
2018-04-12T01:40:24.859Z,100708.08
2018-04-12T01:42:50.528Z,100707.09
2018-04-12T01:45:16.323Z,100700.81
2018-04-12T01:47:41.987Z,100706.38
2018-04-12T01:50:07.687Z,100697.99
2018-04-12T01:52:33.365Z,100700.50
2018-04-12T01:54:59.078Z,100703.12
2018-04-12T01:57:24.750Z,100695.88
2018-04-12T01:59:50.444Z,100697.41
2018-04-12T02:02:16.116Z,100693.63
2018-04-12T02:04:42.083Z,100689.19
2018-04-12T02:07:07.808Z,100687.23
2018-04-12T02:09:33.472Z,100682.84
2018-04-12T02:11:59.194Z,100679.30
2018-04-12T02:14:24.872Z,100676.33
2018-04-12T02:16:50.596Z,100668.36
2018-04-12T02:19:16.254Z,100668.31
2018-04-12T02:21:41.944Z,100663.64
2018-04-12T02:24:07.796Z,100660.97
2018-04-12T02:26:33.486Z,100663.00
2018-04-12T02:28:59.151Z,100662.05
2018-04-12T02:31:24.867Z,100654.67
2018-04-12T02:33:50.572Z,100657.92
2018-04-12T02:36:16.243Z,100652.59
2018-04-12T02:38:41.943Z,100653.27
2018-04-12T02:41:07.623Z,100655.87
2018-04-12T02:43:33.291Z,100644.39
2018-04-12T02:45:58.955Z,100641.55
2018-04-12T02:48:24.643Z,100640.00
2018-04-12T02:50:50.323Z,100627.52
2018-04-12T02:53:16.019Z,100624.45
2018-04-12T02:55:41.683Z,100615.75
2018-04-12T02:58:07.393Z,100624.64
2018-04-12T03:00:33.063Z,100629.67
2018-04-12T03:02:58.750Z,100623.86
2018-04-12T03:05:24.443Z,100621.31
2018-04-12T03:07:50.148Z,100617.75
2018-04-12T03:10:15.813Z,100618.63
2018-04-12T03:12:41.537Z,100611.01
2018-04-12T03:15:07.179Z,100607.82
2018-04-12T03:17:32.896Z,100609.93
2018-04-12T03:19:58.547Z,100608.14
2018-04-12T03:22:24.223Z,100604.23
2018-04-12T03:24:49.911Z,100599.70
2018-04-12T03:27:15.587Z,100607.35
2018-04-12T03:29:41.292Z,100600.94
2018-04-12T03:32:06.967Z,100597.47
2018-04-12T03:34:32.638Z,100594.00
2018-04-12T03:36:58.304Z,100588.88
2018-04-12T03:39:23.996Z,100583.08
2018-04-12T03:41:49.651Z,100581.95
2018-04-12T03:44:15.343Z,100586.23
2018-04-12T03:46:41.011Z,100579.02
2018-04-12T03:49:06.748Z,100581.12
2018-04-12T03:51:32.403Z,100571.64
2018-04-12T03:53:58.131Z,100571.86
2018-04-12T03:56:23.780Z,100566.06
2018-04-12T03:58:49.719Z,100562.33
2018-04-12T04:01:15.390Z,100567.07
2018-04-12T04:03:41.065Z,100564.62
2018-04-12T04:06:06.741Z,100566.55
2018-04-12T04:08:32.435Z,100561.84
2018-04-12T04:10:58.103Z,100565.80
2018-04-12T04:13:23.784Z,100566.16
2018-04-12T04:15:55.606Z,100561.87
2018-04-12T04:18:27.466Z,100570.55
2018-04-12T04:20:59.337Z,100564.89
2018-04-12T04:23:25.006Z,100563.70
2018-04-12T04:25:50.698Z,100566.02
2018-04-12T04:28:16.364Z,100568.41
2018-04-12T04:30:42.042Z,100564.30
2018-04-12T04:33:07.753Z,100567.48
2018-04-12T04:35:33.406Z,100572.67
2018-04-12T04:37:59.090Z,100571.44
2018-04-12T04:40:24.816Z,100556.98
2018-04-12T04:42:50.492Z,100557.75
2018-04-12T04:45:16.183Z,100555.36
2018-04-12T04:47:41.873Z,100554.75
2018-04-12T04:50:07.551Z,100550.12
2018-04-12T04:52:33.211Z,100553.28
2018-04-12T04:54:58.900Z,100543.59
2018-04-12T04:57:24.607Z,100546.13
2018-04-12T04:59:50.306Z,100540.39
2018-04-12T05:02:15.993Z,100531.52
2018-04-12T05:04:41.705Z,100531.45
2018-04-12T05:07:07.363Z,100541.80
2018-04-12T05:09:33.071Z,100541.95
2018-04-12T05:11:58.750Z,100538.14
2018-04-12T05:14:24.419Z,100535.72
2018-04-12T05:16:50.115Z,100523.98
2018-04-12T05:19:15.798Z,100530.02
2018-04-12T05:21:41.499Z,100530.80
2018-04-12T05:24:07.175Z,100525.55
2018-04-12T05:26:32.875Z,100526.25
2018-04-12T05:28:58.548Z,100528.17
2018-04-12T05:31:24.255Z,100527.75
2018-04-12T05:33:49.934Z,100523.06
2018-04-12T05:36:15.694Z,100526.45
2018-04-12T05:38:41.412Z,100535.09
2018-04-12T05:41:07.135Z,100522.59
2018-04-12T05:43:32.800Z,100535.76
2018-04-12T05:45:58.491Z,100532.52
2018-04-12T05:48:24.167Z,100533.65
2018-04-12T05:50:49.847Z,100531.41
2018-04-12T05:53:15.514Z,100528.91
2018-04-12T05:55:41.179Z,100525.27
2018-04-12T05:58:07.043Z,100523.31
2018-04-12T06:00:32.734Z,100533.75
2018-04-12T06:02:58.679Z,100527.38
2018-04-12T06:05:24.351Z,100524.39
2018-04-12T06:07:50.050Z,100517.67
2018-04-12T06:10:15.762Z,100521.35
2018-04-12T06:12:41.494Z,100513.89
2018-04-12T06:15:07.156Z,100517.25
2018-04-12T06:17:32.878Z,100508.39
2018-04-12T06:19:58.583Z,100514.40
2018-04-12T06:22:24.233Z,100517.66
2018-04-12T06:24:49.927Z,100515.80
2018-04-12T06:27:15.603Z,100508.23
2018-04-12T06:29:41.295Z,100522.67
2018-04-12T06:32:07.009Z,100512.57
2018-04-12T06:34:32.709Z,100511.86
2018-04-12T06:36:58.367Z,100515.20
2018-04-12T06:39:24.058Z,100513.57
2018-04-12T06:41:49.735Z,100521.46
2018-04-12T06:44:15.429Z,100513.41
2018-04-12T06:46:41.561Z,100503.88
2018-04-12T06:49:07.201Z,100508.61
2018-04-12T06:51:32.953Z,100505.11
2018-04-12T06:53:58.655Z,100502.50
2018-04-12T06:56:24.334Z,100502.30
2018-04-12T06:58:50.073Z,100499.09
2018-04-12T07:01:15.760Z,100495.06
2018-04-12T07:03:41.414Z,100493.97
2018-04-12T07:06:07.090Z,100480.11
2018-04-12T07:08:32.808Z,100487.36
2018-04-12T07:10:58.493Z,100484.20
2018-04-12T07:13:24.143Z,100477.98
2018-04-12T07:15:50.068Z,100480.77
2018-04-12T07:18:15.724Z,100476.43
2018-04-12T07:20:41.403Z,100468.43
2018-04-12T07:23:07.067Z,100471.68
2018-04-12T07:25:32.943Z,100463.30
2018-04-12T07:27:58.647Z,100461.92
2018-04-12T07:30:24.335Z,100462.60
2018-04-12T07:32:49.996Z,100461.64
2018-04-12T07:35:15.688Z,100460.31
2018-04-12T07:37:41.384Z,100458.67
2018-04-12T07:40:07.078Z,100458.99
2018-04-12T07:42:32.748Z,100458.38
2018-04-12T07:44:58.420Z,100461.19
2018-04-12T07:47:24.111Z,100451.80
2018-04-12T07:49:49.795Z,100449.97
2018-04-12T07:52:15.481Z,100449.95
2018-04-12T07:54:41.142Z,100451.00
2018-04-12T07:57:06.829Z,100445.36
2018-04-12T07:59:32.487Z,100439.50
2018-04-12T08:01:58.181Z,100436.73
2018-04-12T08:04:23.858Z,100436.02
2018-04-12T08:06:49.570Z,100435.62
2018-04-12T08:09:15.231Z,100427.18
2018-04-12T08:11:40.907Z,100415.85
2018-04-12T08:14:06.560Z,100413.87
2018-04-12T08:16:32.256Z,100412.88
2018-04-12T08:18:57.899Z,100407.17
2018-04-12T08:21:23.597Z,100410.77
2018-04-12T08:23:49.272Z,100415.34
2018-04-12T08:26:14.979Z,100417.42
2018-04-12T08:28:40.652Z,100412.20
2018-04-12T08:31:06.576Z,100409.22
2018-04-12T08:33:32.261Z,100404.13
2018-04-12T08:35:57.943Z,100411.95
2018-04-12T08:38:23.613Z,100403.98
2018-04-12T08:40:49.287Z,100400.53
2018-04-12T08:43:15.059Z,100399.11
2018-04-12T08:45:40.718Z,100401.92
2018-04-12T08:48:06.763Z,100389.51
2018-04-12T08:50:32.425Z,100400.39
2018-04-12T08:52:58.119Z,100403.63
2018-04-12T08:55:23.815Z,100407.09
2018-04-12T08:57:49.505Z,100398.94
2018-04-12T09:00:15.229Z,100395.89
2018-04-12T09:02:40.915Z,100401.92
2018-04-12T09:05:06.580Z,100393.94
2018-04-12T09:07:32.271Z,100384.09
2018-04-12T09:09:57.947Z,100385.23
2018-04-12T09:12:23.628Z,100391.23
2018-04-12T09:14:49.528Z,100375.27
2018-04-12T09:17:15.223Z,100378.19
2018-04-12T09:19:40.919Z,100380.68
2018-04-12T09:22:06.627Z,100368.53
2018-04-12T09:24:32.315Z,100360.66
2018-04-12T09:26:57.996Z,100362.22
2018-04-12T09:29:23.674Z,100358.38
2018-04-12T09:31:49.390Z,100355.81
2018-04-12T09:34:15.086Z,100351.89
2018-04-12T09:36:40.791Z,100341.70
2018-04-12T09:39:06.756Z,100333.95
2018-04-12T09:41:32.457Z,100333.94
2018-04-12T09:43:58.111Z,100332.97
2018-04-12T09:46:23.798Z,100307.70
2018-04-12T09:48:49.485Z,100321.35
2018-04-12T09:51:15.142Z,100315.73
2018-04-12T09:53:40.836Z,100310.48
2018-04-12T09:56:06.538Z,100303.79
2018-04-12T09:58:32.367Z,100301.80
2018-04-12T10:00:58.066Z,100295.80
2018-04-12T10:03:23.765Z,100289.84
2018-04-12T10:05:55.597Z,100289.48
2018-04-12T10:08:26.202Z,100277.94
2018-04-12T10:10:51.867Z,100274.11
2018-04-12T10:13:17.537Z,100260.16
2018-04-12T10:15:43.204Z,100266.45
2018-04-12T10:18:08.882Z,100261.08
2018-04-12T10:20:34.660Z,100256.33
2018-04-12T10:23:00.358Z,100252.73
2018-04-12T10:25:26.070Z,100248.73
2018-04-12T10:27:51.799Z,100244.76
2018-04-12T10:30:17.469Z,100242.81
2018-04-12T10:32:43.146Z,100232.97
2018-04-12T10:35:08.823Z,100240.84
2018-04-12T10:37:34.487Z,100247.80
2018-04-12T10:40:00.185Z,100252.42
2018-04-12T10:42:25.856Z,100251.44
2018-04-12T10:44:51.541Z,100232.16
2018-04-12T10:47:17.261Z,100235.34
2018-04-12T10:49:42.935Z,100244.45
2018-04-12T10:52:08.602Z,100259.41
2018-04-12T10:54:34.303Z,100252.99
2018-04-12T10:57:00.020Z,100250.81
2018-04-12T10:59:25.758Z,100242.11
2018-04-12T11:01:51.453Z,100248.55
2018-04-12T11:04:17.150Z,100238.56
2018-04-12T11:06:43.385Z,100240.67
2018-04-12T11:09:09.063Z,100236.92
2018-04-12T11:11:34.865Z,100231.67
2018-04-12T11:14:00.527Z,100232.88
2018-04-12T11:16:26.231Z,100236.74
2018-04-12T11:18:51.890Z,100235.02
2018-04-12T11:21:17.615Z,100233.82
2018-04-12T11:23:43.337Z,100235.08
2018-04-12T11:26:09.000Z,100222.31
2018-04-12T11:28:34.665Z,100222.88
2018-04-12T11:31:00.363Z,100221.66
2018-04-12T11:33:26.045Z,100223.53
2018-04-12T11:35:51.703Z,100221.44
2018-04-12T11:38:17.368Z,100218.38
2018-04-12T11:40:43.065Z,100221.13
2018-04-12T11:43:08.771Z,100210.94
2018-04-12T11:45:34.461Z,100221.66
2018-04-12T11:48:00.139Z,100223.33
2018-04-12T11:50:25.819Z,100224.91
2018-04-12T11:52:51.503Z,100224.95
2018-04-12T11:55:17.169Z,100231.84
2018-04-12T11:57:42.842Z,100229.34
2018-04-12T12:00:08.551Z,100228.88
2018-04-12T12:02:34.247Z,100243.72
2018-04-12T12:04:59.968Z,100250.55
2018-04-12T12:07:25.750Z,100243.28
2018-04-12T12:09:51.417Z,100241.27
2018-04-12T12:12:17.115Z,100241.80
2018-04-12T12:14:42.778Z,100246.47
2018-04-12T12:17:08.455Z,100243.47
2018-04-12T12:19:34.212Z,100247.16
2018-04-12T12:22:02.879Z,100242.15
2018-04-12T12:24:28.623Z,100245.81
2018-04-12T12:26:54.291Z,100244.89
2018-04-12T12:29:20.002Z,100248.09
2018-04-12T12:31:45.671Z,100244.79
2018-04-12T12:34:11.335Z,100228.66
2018-04-12T12:36:37.087Z,100226.80
2018-04-12T12:39:02.815Z,100226.23
2018-04-12T12:41:28.483Z,100223.20
2018-04-12T12:43:54.168Z,100217.17
2018-04-12T12:46:19.860Z,100199.50
2018-04-12T12:48:45.546Z,100199.86
2018-04-12T12:51:11.223Z,100189.03
2018-04-12T12:53:36.912Z,100194.56
2018-04-12T12:56:02.655Z,100189.37
2018-04-12T12:58:28.297Z,100184.13
2018-04-12T13:00:53.976Z,100169.02
2018-04-12T13:03:19.652Z,100169.63
2018-04-12T13:05:45.327Z,100161.72
2018-04-12T13:08:11.014Z,100165.68
2018-04-12T13:10:36.679Z,100167.17
2018-04-12T13:13:02.384Z,100161.88
2018-04-12T13:15:28.072Z,100162.66
2018-04-12T13:17:53.735Z,100168.49
2018-04-12T13:20:19.419Z,100166.30
2018-04-12T13:22:45.093Z,100170.02
2018-04-12T13:25:10.771Z,100160.06
2018-04-12T13:27:36.447Z,100153.13
2018-04-12T13:30:02.165Z,100153.48
2018-04-12T13:32:27.870Z,100147.22
2018-04-12T13:34:53.554Z,100157.16
2018-04-12T13:37:19.216Z,100155.92
2018-04-12T13:39:44.935Z,100147.16
2018-04-12T13:42:10.611Z,100141.45
2018-04-12T13:44:36.271Z,100153.09
2018-04-12T13:47:02.201Z,100139.02
2018-04-12T13:49:27.930Z,100131.84
2018-04-12T13:51:53.639Z,100134.00
2018-04-12T13:54:19.353Z,100139.31
2018-04-12T13:56:45.081Z,100134.84
2018-04-12T13:59:10.739Z,100133.80
2018-04-12T14:01:36.511Z,100133.61
2018-04-12T14:04:02.193Z,100127.86
2018-04-12T14:06:27.850Z,100130.85
2018-04-12T14:08:53.546Z,100131.43
2018-04-12T14:11:19.237Z,100134.31
2018-04-12T14:13:44.934Z,100130.44
2018-04-12T14:16:10.623Z,100127.86
2018-04-12T14:18:36.292Z,100118.27
2018-04-12T14:21:01.986Z,100125.94
2018-04-12T14:23:27.657Z,100125.63
2018-04-12T14:25:53.332Z,100128.28
2018-04-12T14:28:18.986Z,100126.02
2018-04-12T14:30:44.651Z,100124.90
2018-04-12T14:33:10.346Z,100124.81
2018-04-12T14:35:36.152Z,100130.62
2018-04-12T14:38:01.819Z,100120.11
2018-04-12T14:40:27.509Z,100111.81
2018-04-12T14:42:53.195Z,100111.91
2018-04-12T14:45:18.869Z,100111.33
2018-04-12T14:47:44.567Z,100107.11
2018-04-12T14:50:10.263Z,100096.28
2018-04-12T14:52:35.947Z,100104.45
2018-04-12T14:55:01.618Z,100103.86
2018-04-12T14:57:27.318Z,100099.75
2018-04-12T14:59:52.974Z,100100.59
2018-04-12T15:02:18.663Z,100106.20
2018-04-12T15:04:44.315Z,100091.80
2018-04-12T15:07:10.018Z,100097.42
2018-04-12T15:09:35.694Z,100086.69
2018-04-12T15:12:01.388Z,100086.48
2018-04-12T15:14:27.054Z,100089.25
2018-04-12T15:16:52.730Z,100090.15
2018-04-12T15:19:18.391Z,100082.08
2018-04-12T15:21:44.099Z,100090.16
2018-04-12T15:24:09.800Z,100077.88
2018-04-12T15:26:35.523Z,100073.70
2018-04-12T15:29:01.237Z,100081.27
2018-04-12T15:31:26.927Z,100087.61
2018-04-12T15:33:52.630Z,100084.51
2018-04-12T15:36:18.291Z,100076.95
2018-04-12T15:38:44.003Z,100078.81
2018-04-12T15:41:09.663Z,100077.17
2018-04-12T15:43:37.333Z,100070.41
2018-04-12T15:46:03.147Z,100079.49
2018-04-12T15:48:29.404Z,100083.62
2018-04-12T15:50:55.807Z,100076.96
2018-04-12T15:53:22.312Z,100085.75
2018-04-12T15:55:48.087Z,100078.50
2018-04-12T15:58:13.787Z,100082.16
2018-04-12T16:00:39.478Z,100076.84
2018-04-12T16:03:05.169Z,100079.52
2018-04-12T16:05:30.882Z,100076.56
2018-04-12T16:07:56.707Z,100081.57
2018-04-12T16:10:22.406Z,100076.45
2018-04-12T16:12:48.079Z,100073.20
2018-04-12T16:15:13.751Z,100065.84
2018-04-12T16:17:39.436Z,100072.48
2018-04-12T16:20:05.131Z,100083.28
2018-04-12T16:22:30.923Z,100067.03
2018-04-12T16:24:56.604Z,100077.55
2018-04-12T16:27:22.287Z,100078.70
2018-04-12T16:29:47.960Z,100073.97
2018-04-12T16:32:13.658Z,100063.91
2018-04-12T16:34:39.329Z,100073.20
2018-04-12T16:37:05.002Z,100066.78
2018-04-12T16:39:30.683Z,100070.34
2018-04-12T16:41:56.399Z,100071.96
2018-04-12T16:44:22.074Z,100068.20
2018-04-12T16:46:47.772Z,100066.23
2018-04-12T16:49:13.525Z,100063.25
2018-04-12T16:51:39.223Z,100064.34
2018-04-12T16:54:04.920Z,100071.34
2018-04-12T16:56:30.615Z,100071.63
2018-04-12T16:58:56.314Z,100080.36
2018-04-12T17:01:22.078Z,100079.31
2018-04-12T17:03:47.743Z,100080.39
2018-04-12T17:06:13.459Z,100084.28
2018-04-12T17:08:39.147Z,100092.70
2018-04-12T17:11:04.859Z,100094.80
2018-04-12T17:13:30.551Z,100104.95
2018-04-12T17:15:56.207Z,100102.64
2018-04-12T17:18:22.182Z,100104.39
2018-04-12T17:20:48.138Z,100097.41
2018-04-12T17:23:13.881Z,100098.28
2018-04-12T17:25:39.627Z,100097.54
2018-04-12T17:28:05.307Z,100103.08
2018-04-12T17:30:31.868Z,100109.88
2018-04-12T17:32:57.562Z,100109.45
2018-04-12T17:35:23.228Z,100105.31
2018-04-12T17:37:48.928Z,100107.26
2018-04-12T17:40:14.586Z,100107.05
2018-04-12T17:42:40.396Z,100110.48
2018-04-12T17:45:06.075Z,100112.38
2018-04-12T17:47:31.795Z,100114.06
2018-04-12T17:49:57.478Z,100116.66
2018-04-12T17:52:23.174Z,100117.84
2018-04-12T17:54:48.854Z,100118.42
2018-04-12T17:57:14.557Z,100119.08
2018-04-12T17:59:40.239Z,100122.50
2018-04-12T18:02:05.944Z,100119.09
2018-04-12T18:04:31.663Z,100124.25
2018-04-12T18:06:57.365Z,100121.18
2018-04-12T18:09:23.060Z,100124.55
2018-04-12T18:11:48.797Z,100121.97
2018-04-12T18:14:15.398Z,100132.01
2018-04-12T18:16:41.980Z,100130.63
2018-04-12T18:19:07.654Z,100133.55
2018-04-12T18:21:33.330Z,100145.52
2018-04-12T18:23:59.002Z,100142.33
2018-04-12T18:26:24.734Z,100157.59
2018-04-12T18:28:50.410Z,100163.48
2018-04-12T18:31:16.549Z,100162.80
2018-04-12T18:33:42.234Z,100167.06
2018-04-12T18:36:07.900Z,100166.80
2018-04-12T18:38:33.585Z,100173.59
2018-04-12T18:40:59.243Z,100182.44
2018-04-12T18:43:24.917Z,100185.48
2018-04-12T18:45:50.858Z,100191.57
2018-04-12T18:48:16.531Z,100197.19
2018-04-12T18:50:42.260Z,100192.75
2018-04-12T18:53:07.925Z,100202.95
2018-04-12T18:55:33.673Z,100198.54
2018-04-12T18:57:59.334Z,100201.79
2018-04-12T19:00:25.062Z,100215.11
2018-04-12T19:02:50.736Z,100205.91
2018-04-12T19:05:16.414Z,100208.77
2018-04-12T19:07:42.103Z,100214.57
2018-04-12T19:10:07.769Z,100206.47
2018-04-12T19:12:33.451Z,100205.27
2018-04-12T19:14:59.142Z,100200.41
2018-04-12T19:17:24.860Z,100202.39
2018-04-12T19:19:50.535Z,100206.91
2018-04-12T19:22:16.200Z,100206.90
2018-04-12T19:24:41.967Z,100207.01
2018-04-12T19:27:07.643Z,100210.08
2018-04-12T19:29:33.315Z,100212.33
2018-04-12T19:31:59.064Z,100213.92
2018-04-12T19:34:24.749Z,100211.08
2018-04-12T19:36:50.414Z,100205.80
2018-04-12T19:39:16.079Z,100216.61
2018-04-12T19:41:41.747Z,100211.85
2018-04-12T19:44:07.427Z,100209.63
2018-04-12T19:46:33.150Z,100206.45
2018-04-12T19:48:58.834Z,100209.99
2018-04-12T19:51:24.519Z,100212.05
2018-04-12T19:53:50.170Z,100204.70
2018-04-12T19:56:15.920Z,100199.80
2018-04-12T19:58:41.567Z,100202.50
2018-04-12T20:01:07.244Z,100198.38
2018-04-12T20:03:32.909Z,100198.05
2018-04-12T20:05:58.571Z,100196.23
2018-04-12T20:08:24.299Z,100199.11
2018-04-12T20:10:49.975Z,100194.27
2018-04-12T20:13:15.668Z,100209.90
2018-04-12T20:15:41.315Z,100202.63
2018-04-12T20:18:07.058Z,100200.75
2018-04-12T20:20:32.742Z,100199.09
2018-04-12T20:22:58.419Z,100199.34
2018-04-12T20:25:24.383Z,100176.41
2018-04-12T20:27:50.059Z,100200.26
2018-04-12T20:30:15.725Z,100196.32
2018-04-12T20:32:41.418Z,100196.48
2018-04-12T20:35:07.099Z,100193.94
2018-04-12T20:37:32.760Z,100201.73
2018-04-12T20:39:58.466Z,100198.04
2018-04-12T20:42:24.123Z,100197.55
2018-04-12T20:44:49.803Z,100195.24
2018-04-12T20:47:15.467Z,100193.75
2018-04-12T20:49:41.131Z,100184.48
2018-04-12T20:52:06.809Z,100183.23
2018-04-12T20:54:32.486Z,100182.76
2018-04-12T20:56:58.390Z,100194.50
2018-04-12T20:59:24.075Z,100190.39
2018-04-12T21:01:49.724Z,100186.10
2018-04-12T21:04:15.413Z,100187.25
2018-04-12T21:06:41.082Z,100183.98
2018-04-12T21:09:06.802Z,100185.84
2018-04-12T21:11:32.734Z,100186.75
2018-04-12T21:13:58.395Z,100188.81
2018-04-12T21:16:24.074Z,100190.88
2018-04-12T21:18:49.771Z,100193.17
2018-04-12T21:21:15.443Z,100189.23
2018-04-12T21:23:41.282Z,100186.09
2018-04-12T21:26:06.941Z,100186.90
2018-04-12T21:28:32.824Z,100186.55
2018-04-12T21:30:58.506Z,100192.89
2018-04-12T21:33:24.497Z,100190.50
2018-04-12T21:35:50.170Z,100193.37
2018-04-12T21:38:15.827Z,100182.86
2018-04-12T21:40:41.516Z,100194.03
2018-04-12T21:43:07.182Z,100186.00
2018-04-12T21:45:32.860Z,100182.71
2018-04-12T21:47:58.595Z,100192.16
2018-04-12T21:50:24.293Z,100189.05
2018-04-12T21:52:49.966Z,100191.67
2018-04-12T21:55:15.653Z,100198.16
2018-04-12T21:57:41.341Z,100194.73
2018-04-12T22:00:07.040Z,100185.59
2018-04-12T22:02:32.752Z,100186.19
2018-04-12T22:04:58.411Z,100194.88
2018-04-12T22:07:24.199Z,100188.77
2018-04-12T22:09:49.858Z,100188.28
2018-04-12T22:12:15.532Z,100195.20
2018-04-12T22:14:41.223Z,100198.00
2018-04-12T22:17:06.915Z,100194.55
2018-04-12T22:19:32.590Z,100193.81
2018-04-12T22:21:58.297Z,100191.73
2018-04-12T22:24:24.027Z,100199.29
2018-04-12T22:26:49.915Z,100199.16
2018-04-12T22:29:15.662Z,100206.94
2018-04-12T22:31:41.374Z,100203.23
2018-04-12T22:34:07.038Z,100202.16
2018-04-12T22:36:32.728Z,100196.01
2018-04-12T22:38:58.431Z,100200.20
2018-04-12T22:41:24.106Z,100195.59
2018-04-12T22:43:49.775Z,100196.19
2018-04-12T22:46:15.608Z,100194.70
2018-04-12T22:48:41.285Z,100189.92
2018-04-12T22:51:07.121Z,100195.84
2018-04-12T22:53:32.807Z,100193.94
2018-04-12T22:55:58.526Z,100194.35
2018-04-12T22:58:24.194Z,100187.37
2018-04-12T23:00:49.859Z,100192.87
2018-04-12T23:03:15.695Z,100185.36
2018-04-12T23:05:41.375Z,100189.09
2018-04-12T23:08:07.048Z,100183.91
2018-04-12T23:10:32.722Z,100178.64
2018-04-12T23:12:58.395Z,100181.94
2018-04-12T23:15:24.079Z,100188.30
2018-04-12T23:17:50.186Z,100198.41
2018-04-12T23:20:15.899Z,100199.66
2018-04-12T23:22:41.618Z,100198.16
2018-04-12T23:25:07.328Z,100192.80
2018-04-12T23:27:32.982Z,100187.03
2018-04-12T23:29:58.655Z,100188.48
2018-04-12T23:32:24.320Z,100180.94
2018-04-12T23:34:50.037Z,100177.23
2018-04-12T23:37:15.703Z,100156.63
2018-04-12T23:39:41.362Z,100163.92
2018-04-12T23:42:07.044Z,100168.94
2018-04-12T23:44:32.702Z,100158.63
2018-04-12T23:46:58.375Z,100168.59
2018-04-12T23:49:24.098Z,100157.36
2018-04-12T23:51:49.812Z,100147.73
2018-04-12T23:54:15.503Z,100143.34
2018-04-12T23:56:41.174Z,100153.68
2018-04-12T23:59:06.831Z,100147.45
